sensor_id;sensor_type;location;lat;lon;timestamp;P1;durP1;ratioP1;P2;durP2;ratioP2
48621;SDS011;34421;48.944;9.460;2022-07-06T00:01:46;1.58;;;0.90;;
48621;SDS011;34421;48.944;9.460;2022-07-06T00:04:12;1.42;;;0.98;;
48621;SDS011;34421;48.944;9.460;2022-07-06T00:06:37;1.10;;;0.80;;
48621;SDS011;34421;48.944;9.460;2022-07-06T00:09:03;1.60;;;0.80;;
48621;SDS011;34421;48.944;9.460;2022-07-06T00:11:30;1.52;;;1.00;;
48621;SDS011;34421;48.944;9.460;2022-07-06T00:13:56;1.02;;;0.70;;
48621;SDS011;34421;48.944;9.460;2022-07-06T00:16:24;1.67;;;1.10;;
48621;SDS011;34421;48.944;9.460;2022-07-06T00:18:50;1.77;;;0.77;;
48621;SDS011;34421;48.944;9.460;2022-07-06T00:21:15;1.50;;;1.00;;
48621;SDS011;34421;48.944;9.460;2022-07-06T00:23:41;1.67;;;0.70;;
48621;SDS011;34421;48.944;9.460;2022-07-06T00:26:07;2.28;;;1.10;;
48621;SDS011;34421;48.944;9.460;2022-07-06T00:28:33;1.50;;;1.10;;
48621;SDS011;34421;48.944;9.460;2022-07-06T00:30:58;1.38;;;0.82;;
48621;SDS011;34421;48.944;9.460;2022-07-06T00:33:23;1.20;;;0.90;;
48621;SDS011;34421;48.944;9.460;2022-07-06T00:35:49;1.98;;;0.90;;
48621;SDS011;34421;48.944;9.460;2022-07-06T00:38:14;2.05;;;0.90;;
48621;SDS011;34421;48.944;9.460;2022-07-06T00:40:40;1.42;;;0.80;;
48621;SDS011;34421;48.944;9.460;2022-07-06T00:43:05;1.88;;;1.00;;
48621;SDS011;34421;48.944;9.460;2022-07-06T00:45:30;1.50;;;0.80;;
48621;SDS011;34421;48.944;9.460;2022-07-06T00:47:56;2.95;;;1.13;;
48621;SDS011;34421;48.944;9.460;2022-07-06T00:50:21;2.42;;;0.85;;
48621;SDS011;34421;48.944;9.460;2022-07-06T00:52:50;3.72;;;1.45;;
48621;SDS011;34421;48.944;9.460;2022-07-06T00:55:18;1.27;;;0.93;;
48621;SDS011;34421;48.944;9.460;2022-07-06T00:57:51;1.38;;;0.98;;
48621;SDS011;34421;48.944;9.460;2022-07-06T01:00:18;1.83;;;0.80;;
48621;SDS011;34421;48.944;9.460;2022-07-06T01:02:45;2.03;;;1.13;;
48621;SDS011;34421;48.944;9.460;2022-07-06T01:05:12;1.30;;;0.90;;
48621;SDS011;34421;48.944;9.460;2022-07-06T01:07:38;1.77;;;1.25;;
48621;SDS011;34421;48.944;9.460;2022-07-06T01:10:05;2.35;;;1.00;;
48621;SDS011;34421;48.944;9.460;2022-07-06T01:12:31;1.60;;;1.00;;
48621;SDS011;34421;48.944;9.460;2022-07-06T01:14:59;1.20;;;0.80;;
48621;SDS011;34421;48.944;9.460;2022-07-06T01:17:26;1.40;;;0.85;;
48621;SDS011;34421;48.944;9.460;2022-07-06T01:19:51;1.33;;;1.00;;
48621;SDS011;34421;48.944;9.460;2022-07-06T01:22:17;2.33;;;1.05;;
48621;SDS011;34421;48.944;9.460;2022-07-06T01:24:43;1.58;;;0.93;;
48621;SDS011;34421;48.944;9.460;2022-07-06T01:27:09;1.00;;;0.77;;
48621;SDS011;34421;48.944;9.460;2022-07-06T01:29:35;1.70;;;0.90;;
48621;SDS011;34421;48.944;9.460;2022-07-06T01:32:00;1.77;;;0.80;;
48621;SDS011;34421;48.944;9.460;2022-07-06T01:34:26;1.38;;;0.90;;
48621;SDS011;34421;48.944;9.460;2022-07-06T01:36:52;2.50;;;1.00;;
48621;SDS011;34421;48.944;9.460;2022-07-06T01:39:18;1.95;;;0.82;;
48621;SDS011;34421;48.944;9.460;2022-07-06T01:41:43;2.03;;;0.80;;
48621;SDS011;34421;48.944;9.460;2022-07-06T01:44:09;1.08;;;0.80;;
48621;SDS011;34421;48.944;9.460;2022-07-06T01:46:34;3.47;;;1.10;;
48621;SDS011;34421;48.944;9.460;2022-07-06T01:49:00;2.28;;;1.30;;
48621;SDS011;34421;48.944;9.460;2022-07-06T01:51:25;1.80;;;0.85;;
48621;SDS011;34421;48.944;9.460;2022-07-06T01:53:51;1.80;;;1.15;;
48621;SDS011;34421;48.944;9.460;2022-07-06T01:56:16;1.98;;;1.10;;
48621;SDS011;34421;48.944;9.460;2022-07-06T01:58:44;1.70;;;0.90;;
48621;SDS011;34421;48.944;9.460;2022-07-06T02:01:10;2.88;;;0.98;;
48621;SDS011;34421;48.944;9.460;2022-07-06T02:03:37;3.53;;;0.88;;
48621;SDS011;34421;48.944;9.460;2022-07-06T02:06:03;1.40;;;0.90;;
48621;SDS011;34421;48.944;9.460;2022-07-06T02:08:30;1.25;;;0.75;;
48621;SDS011;34421;48.944;9.460;2022-07-06T02:10:55;2.60;;;1.08;;
48621;SDS011;34421;48.944;9.460;2022-07-06T02:13:21;1.23;;;0.90;;
48621;SDS011;34421;48.944;9.460;2022-07-06T02:15:46;2.30;;;1.10;;
48621;SDS011;34421;48.944;9.460;2022-07-06T02:18:11;3.65;;;1.38;;
48621;SDS011;34421;48.944;9.460;2022-07-06T02:20:37;2.35;;;1.10;;
48621;SDS011;34421;48.944;9.460;2022-07-06T02:23:02;2.15;;;1.42;;
48621;SDS011;34421;48.944;9.460;2022-07-06T02:25:28;2.35;;;1.10;;
48621;SDS011;34421;48.944;9.460;2022-07-06T02:27:53;1.80;;;1.00;;
48621;SDS011;34421;48.944;9.460;2022-07-06T02:30:19;2.60;;;1.13;;
48621;SDS011;34421;48.944;9.460;2022-07-06T02:32:44;1.90;;;0.90;;
48621;SDS011;34421;48.944;9.460;2022-07-06T02:35:09;1.38;;;1.10;;
48621;SDS011;34421;48.944;9.460;2022-07-06T02:37:35;1.45;;;1.02;;
48621;SDS011;34421;48.944;9.460;2022-07-06T02:40:00;1.30;;;1.02;;
48621;SDS011;34421;48.944;9.460;2022-07-06T02:42:26;1.95;;;0.90;;
48621;SDS011;34421;48.944;9.460;2022-07-06T02:44:54;1.90;;;1.10;;
48621;SDS011;34421;48.944;9.460;2022-07-06T02:47:20;1.45;;;0.93;;
48621;SDS011;34421;48.944;9.460;2022-07-06T02:49:46;2.47;;;1.00;;
48621;SDS011;34421;48.944;9.460;2022-07-06T02:52:11;2.05;;;1.20;;
48621;SDS011;34421;48.944;9.460;2022-07-06T02:54:37;1.52;;;1.00;;
48621;SDS011;34421;48.944;9.460;2022-07-06T02:57:02;1.50;;;1.00;;
48621;SDS011;34421;48.944;9.460;2022-07-06T02:59:27;1.85;;;1.10;;
48621;SDS011;34421;48.944;9.460;2022-07-06T03:01:53;2.15;;;1.10;;
48621;SDS011;34421;48.944;9.460;2022-07-06T03:04:18;1.42;;;1.10;;
48621;SDS011;34421;48.944;9.460;2022-07-06T03:06:43;1.70;;;1.25;;
48621;SDS011;34421;48.944;9.460;2022-07-06T03:09:09;1.80;;;1.13;;
48621;SDS011;34421;48.944;9.460;2022-07-06T03:11:34;1.60;;;0.82;;
48621;SDS011;34421;48.944;9.460;2022-07-06T03:14:02;1.58;;;1.05;;
48621;SDS011;34421;48.944;9.460;2022-07-06T03:16:30;1.52;;;0.98;;
48621;SDS011;34421;48.944;9.460;2022-07-06T03:18:56;1.92;;;1.10;;
48621;SDS011;34421;48.944;9.460;2022-07-06T03:21:23;1.55;;;0.90;;
48621;SDS011;34421;48.944;9.460;2022-07-06T03:23:49;2.42;;;1.08;;
48621;SDS011;34421;48.944;9.460;2022-07-06T03:26:15;4.18;;;1.17;;
48621;SDS011;34421;48.944;9.460;2022-07-06T03:28:40;2.00;;;1.13;;
48621;SDS011;34421;48.944;9.460;2022-07-06T03:31:05;1.30;;;0.80;;
48621;SDS011;34421;48.944;9.460;2022-07-06T03:33:31;1.67;;;1.10;;
48621;SDS011;34421;48.944;9.460;2022-07-06T03:35:56;2.72;;;1.30;;
48621;SDS011;34421;48.944;9.460;2022-07-06T03:38:22;2.35;;;0.85;;
48621;SDS011;34421;48.944;9.460;2022-07-06T03:40:47;1.45;;;1.17;;
48621;SDS011;34421;48.944;9.460;2022-07-06T03:43:12;1.60;;;1.00;;
48621;SDS011;34421;48.944;9.460;2022-07-06T03:45:38;2.05;;;1.05;;
48621;SDS011;34421;48.944;9.460;2022-07-06T03:48:03;1.65;;;1.20;;
48621;SDS011;34421;48.944;9.460;2022-07-06T03:50:29;2.35;;;1.10;;
48621;SDS011;34421;48.944;9.460;2022-07-06T03:52:54;1.80;;;1.10;;
48621;SDS011;34421;48.944;9.460;2022-07-06T03:55:19;1.85;;;0.95;;
48621;SDS011;34421;48.944;9.460;2022-07-06T03:57:45;1.65;;;1.00;;
48621;SDS011;34421;48.944;9.460;2022-07-06T04:00:10;2.35;;;0.98;;
48621;SDS011;34421;48.944;9.460;2022-07-06T04:02:36;2.10;;;1.23;;
48621;SDS011;34421;48.944;9.460;2022-07-06T04:05:01;1.88;;;1.05;;
48621;SDS011;34421;48.944;9.460;2022-07-06T04:07:27;1.52;;;0.90;;
48621;SDS011;34421;48.944;9.460;2022-07-06T04:09:52;2.80;;;1.30;;
48621;SDS011;34421;48.944;9.460;2022-07-06T04:12:17;2.08;;;1.55;;
48621;SDS011;34421;48.944;9.460;2022-07-06T04:14:43;1.98;;;1.05;;
48621;SDS011;34421;48.944;9.460;2022-07-06T04:17:08;1.63;;;1.05;;
48621;SDS011;34421;48.944;9.460;2022-07-06T04:19:52;2.83;;;1.08;;
48621;SDS011;34421;48.944;9.460;2022-07-06T04:22:18;2.08;;;1.25;;
48621;SDS011;34421;48.944;9.460;2022-07-06T04:24:43;2.00;;;1.20;;
48621;SDS011;34421;48.944;9.460;2022-07-06T04:27:08;2.58;;;1.23;;
48621;SDS011;34421;48.944;9.460;2022-07-06T04:29:34;2.40;;;1.13;;
48621;SDS011;34421;48.944;9.460;2022-07-06T04:31:59;1.50;;;0.90;;
48621;SDS011;34421;48.944;9.460;2022-07-06T04:34:33;1.52;;;1.23;;
48621;SDS011;34421;48.944;9.460;2022-07-06T04:36:59;2.22;;;1.25;;
48621;SDS011;34421;48.944;9.460;2022-07-06T04:39:24;1.70;;;1.00;;
48621;SDS011;34421;48.944;9.460;2022-07-06T04:41:49;3.35;;;1.23;;
48621;SDS011;34421;48.944;9.460;2022-07-06T04:44:15;1.70;;;1.13;;
48621;SDS011;34421;48.944;9.460;2022-07-06T04:46:40;2.22;;;1.40;;
48621;SDS011;34421;48.944;9.460;2022-07-06T04:49:05;2.72;;;1.50;;
48621;SDS011;34421;48.944;9.460;2022-07-06T04:51:31;1.70;;;1.08;;
48621;SDS011;34421;48.944;9.460;2022-07-06T04:53:57;2.00;;;1.13;;
48621;SDS011;34421;48.944;9.460;2022-07-06T04:56:22;2.65;;;1.45;;
48621;SDS011;34421;48.944;9.460;2022-07-06T04:58:47;2.22;;;1.30;;
48621;SDS011;34421;48.944;9.460;2022-07-06T05:01:13;2.42;;;1.40;;
48621;SDS011;34421;48.944;9.460;2022-07-06T05:03:38;2.22;;;1.40;;
48621;SDS011;34421;48.944;9.460;2022-07-06T05:06:05;3.85;;;1.40;;
48621;SDS011;34421;48.944;9.460;2022-07-06T05:08:31;1.73;;;1.20;;
48621;SDS011;34421;48.944;9.460;2022-07-06T05:10:57;2.13;;;1.30;;
48621;SDS011;34421;48.944;9.460;2022-07-06T05:13:22;2.30;;;1.35;;
48621;SDS011;34421;48.944;9.460;2022-07-06T05:15:48;3.28;;;1.73;;
48621;SDS011;34421;48.944;9.460;2022-07-06T05:18:13;2.53;;;1.38;;
48621;SDS011;34421;48.944;9.460;2022-07-06T05:20:39;2.90;;;1.60;;
48621;SDS011;34421;48.944;9.460;2022-07-06T05:23:04;2.45;;;1.55;;
48621;SDS011;34421;48.944;9.460;2022-07-06T05:25:30;1.75;;;1.20;;
48621;SDS011;34421;48.944;9.460;2022-07-06T05:27:56;2.10;;;1.38;;
48621;SDS011;34421;48.944;9.460;2022-07-06T05:30:21;1.85;;;1.30;;
48621;SDS011;34421;48.944;9.460;2022-07-06T05:32:47;2.17;;;1.30;;
48621;SDS011;34421;48.944;9.460;2022-07-06T05:35:12;2.17;;;1.30;;
48621;SDS011;34421;48.944;9.460;2022-07-06T05:37:37;1.23;;;0.93;;
48621;SDS011;34421;48.944;9.460;2022-07-06T05:40:03;2.72;;;1.65;;
48621;SDS011;34421;48.944;9.460;2022-07-06T05:42:28;1.75;;;1.15;;
48621;SDS011;34421;48.944;9.460;2022-07-06T05:44:54;2.35;;;1.55;;
48621;SDS011;34421;48.944;9.460;2022-07-06T05:47:21;3.50;;;1.52;;
48621;SDS011;34421;48.944;9.460;2022-07-06T05:50:05;2.17;;;1.50;;
48621;SDS011;34421;48.944;9.460;2022-07-06T05:52:37;3.67;;;1.90;;
48621;SDS011;34421;48.944;9.460;2022-07-06T05:55:02;2.40;;;1.70;;
48621;SDS011;34421;48.944;9.460;2022-07-06T05:57:28;2.20;;;1.40;;
48621;SDS011;34421;48.944;9.460;2022-07-06T05:59:53;3.03;;;1.77;;
48621;SDS011;34421;48.944;9.460;2022-07-06T06:02:19;2.15;;;1.40;;
48621;SDS011;34421;48.944;9.460;2022-07-06T06:04:44;3.03;;;1.52;;
48621;SDS011;34421;48.944;9.460;2022-07-06T06:07:09;2.97;;;1.80;;
48621;SDS011;34421;48.944;9.460;2022-07-06T06:09:35;3.35;;;1.80;;
48621;SDS011;34421;48.944;9.460;2022-07-06T06:12:00;2.65;;;1.52;;
48621;SDS011;34421;48.944;9.460;2022-07-06T06:14:26;2.05;;;1.33;;
48621;SDS011;34421;48.944;9.460;2022-07-06T06:16:51;2.53;;;1.85;;
48621;SDS011;34421;48.944;9.460;2022-07-06T06:19:16;3.05;;;1.75;;
48621;SDS011;34421;48.944;9.460;2022-07-06T06:21:42;3.67;;;1.85;;
48621;SDS011;34421;48.944;9.460;2022-07-06T06:24:07;3.08;;;1.50;;
48621;SDS011;34421;48.944;9.460;2022-07-06T06:26:32;3.95;;;1.88;;
48621;SDS011;34421;48.944;9.460;2022-07-06T06:28:58;2.30;;;1.40;;
48621;SDS011;34421;48.944;9.460;2022-07-06T06:31:23;2.58;;;1.60;;
48621;SDS011;34421;48.944;9.460;2022-07-06T06:33:48;2.70;;;1.30;;
48621;SDS011;34421;48.944;9.460;2022-07-06T06:36:14;1.98;;;1.20;;
48621;SDS011;34421;48.944;9.460;2022-07-06T06:38:39;1.88;;;1.20;;
48621;SDS011;34421;48.944;9.460;2022-07-06T06:41:05;2.70;;;1.58;;
48621;SDS011;34421;48.944;9.460;2022-07-06T06:43:30;4.28;;;1.40;;
48621;SDS011;34421;48.944;9.460;2022-07-06T06:45:56;1.90;;;1.40;;
48621;SDS011;34421;48.944;9.460;2022-07-06T06:48:21;5.60;;;1.55;;
48621;SDS011;34421;48.944;9.460;2022-07-06T06:50:46;2.55;;;1.85;;
48621;SDS011;34421;48.944;9.460;2022-07-06T06:53:12;2.13;;;1.40;;
48621;SDS011;34421;48.944;9.460;2022-07-06T06:55:37;2.05;;;1.30;;
48621;SDS011;34421;48.944;9.460;2022-07-06T06:58:03;3.90;;;1.40;;
48621;SDS011;34421;48.944;9.460;2022-07-06T07:00:28;3.20;;;1.45;;
48621;SDS011;34421;48.944;9.460;2022-07-06T07:02:54;3.38;;;1.48;;
48621;SDS011;34421;48.944;9.460;2022-07-06T07:05:19;3.28;;;1.77;;
48621;SDS011;34421;48.944;9.460;2022-07-06T07:07:45;2.63;;;1.45;;
48621;SDS011;34421;48.944;9.460;2022-07-06T07:10:10;2.65;;;1.40;;
48621;SDS011;34421;48.944;9.460;2022-07-06T07:12:41;3.17;;;1.52;;
48621;SDS011;34421;48.944;9.460;2022-07-06T07:15:08;3.67;;;2.17;;
48621;SDS011;34421;48.944;9.460;2022-07-06T07:17:36;2.38;;;1.33;;
48621;SDS011;34421;48.944;9.460;2022-07-06T07:20:01;3.72;;;1.58;;
48621;SDS011;34421;48.944;9.460;2022-07-06T07:22:26;3.08;;;1.30;;
48621;SDS011;34421;48.944;9.460;2022-07-06T07:24:52;3.17;;;1.52;;
48621;SDS011;34421;48.944;9.460;2022-07-06T07:27:17;1.80;;;1.05;;
48621;SDS011;34421;48.944;9.460;2022-07-06T07:29:43;3.72;;;1.27;;
48621;SDS011;34421;48.944;9.460;2022-07-06T07:32:08;2.22;;;1.27;;
48621;SDS011;34421;48.944;9.460;2022-07-06T07:34:33;2.13;;;1.33;;
48621;SDS011;34421;48.944;9.460;2022-07-06T07:36:59;2.28;;;1.25;;
48621;SDS011;34421;48.944;9.460;2022-07-06T07:39:24;2.22;;;1.10;;
48621;SDS011;34421;48.944;9.460;2022-07-06T07:41:49;2.40;;;1.48;;
48621;SDS011;34421;48.944;9.460;2022-07-06T07:44:17;4.60;;;1.30;;
48621;SDS011;34421;48.944;9.460;2022-07-06T07:46:42;3.53;;;1.08;;
48621;SDS011;34421;48.944;9.460;2022-07-06T07:49:08;2.47;;;1.55;;
48621;SDS011;34421;48.944;9.460;2022-07-06T07:51:33;2.30;;;1.45;;
48621;SDS011;34421;48.944;9.460;2022-07-06T07:53:59;3.30;;;1.20;;
48621;SDS011;34421;48.944;9.460;2022-07-06T07:56:24;2.13;;;1.30;;
48621;SDS011;34421;48.944;9.460;2022-07-06T07:58:49;3.65;;;1.10;;
48621;SDS011;34421;48.944;9.460;2022-07-06T08:01:15;2.15;;;1.20;;
48621;SDS011;34421;48.944;9.460;2022-07-06T08:03:40;4.65;;;1.42;;
48621;SDS011;34421;48.944;9.460;2022-07-06T08:06:05;1.67;;;1.35;;
48621;SDS011;34421;48.944;9.460;2022-07-06T08:08:31;2.78;;;1.50;;
48621;SDS011;34421;48.944;9.460;2022-07-06T08:10:56;2.13;;;1.50;;
48621;SDS011;34421;48.944;9.460;2022-07-06T08:13:21;6.07;;;1.70;;
48621;SDS011;34421;48.944;9.460;2022-07-06T08:15:47;2.95;;;1.60;;
48621;SDS011;34421;48.944;9.460;2022-07-06T08:18:12;1.65;;;1.38;;
48621;SDS011;34421;48.944;9.460;2022-07-06T08:20:38;2.20;;;1.33;;
48621;SDS011;34421;48.944;9.460;2022-07-06T08:23:04;2.78;;;1.40;;
48621;SDS011;34421;48.944;9.460;2022-07-06T08:25:30;1.80;;;0.95;;
48621;SDS011;34421;48.944;9.460;2022-07-06T08:27:56;1.65;;;1.10;;
48621;SDS011;34421;48.944;9.460;2022-07-06T08:30:21;2.55;;;1.40;;
48621;SDS011;34421;48.944;9.460;2022-07-06T08:32:47;1.50;;;1.10;;
48621;SDS011;34421;48.944;9.460;2022-07-06T08:35:12;1.42;;;1.10;;
48621;SDS011;34421;48.944;9.460;2022-07-06T08:37:37;4.30;;;1.05;;
48621;SDS011;34421;48.944;9.460;2022-07-06T08:40:03;2.58;;;1.40;;
48621;SDS011;34421;48.944;9.460;2022-07-06T08:42:30;3.03;;;1.40;;
48621;SDS011;34421;48.944;9.460;2022-07-06T08:45:00;2.72;;;1.45;;
48621;SDS011;34421;48.944;9.460;2022-07-06T08:47:27;2.35;;;1.33;;
48621;SDS011;34421;48.944;9.460;2022-07-06T08:49:53;2.38;;;1.38;;
48621;SDS011;34421;48.944;9.460;2022-07-06T08:52:19;2.20;;;1.30;;
48621;SDS011;34421;48.944;9.460;2022-07-06T08:54:45;2.08;;;1.40;;
48621;SDS011;34421;48.944;9.460;2022-07-06T08:57:10;1.83;;;1.25;;
48621;SDS011;34421;48.944;9.460;2022-07-06T08:59:36;1.73;;;1.10;;
48621;SDS011;34421;48.944;9.460;2022-07-06T09:02:04;1.83;;;1.00;;
48621;SDS011;34421;48.944;9.460;2022-07-06T09:04:29;1.92;;;1.15;;
48621;SDS011;34421;48.944;9.460;2022-07-06T09:07:00;3.08;;;1.30;;
48621;SDS011;34421;48.944;9.460;2022-07-06T09:09:26;3.17;;;1.60;;
48621;SDS011;34421;48.944;9.460;2022-07-06T09:11:56;2.35;;;1.42;;
48621;SDS011;34421;48.944;9.460;2022-07-06T09:14:22;2.00;;;1.38;;
48621;SDS011;34421;48.944;9.460;2022-07-06T09:16:51;3.75;;;1.50;;
48621;SDS011;34421;48.944;9.460;2022-07-06T09:19:18;1.38;;;0.90;;
48621;SDS011;34421;48.944;9.460;2022-07-06T09:21:43;2.85;;;1.58;;
48621;SDS011;34421;48.944;9.460;2022-07-06T09:24:10;3.40;;;1.80;;
48621;SDS011;34421;48.944;9.460;2022-07-06T09:26:37;2.53;;;1.75;;
48621;SDS011;34421;48.944;9.460;2022-07-06T09:29:03;5.07;;;1.40;;
48621;SDS011;34421;48.944;9.460;2022-07-06T09:31:29;2.90;;;1.55;;
48621;SDS011;34421;48.944;9.460;2022-07-06T09:39:27;3.05;;;1.70;;
48621;SDS011;34421;48.944;9.460;2022-07-06T09:41:58;1.83;;;1.30;;
48621;SDS011;34421;48.944;9.460;2022-07-06T09:44:29;2.38;;;1.60;;
48621;SDS011;34421;48.944;9.460;2022-07-06T09:46:55;3.67;;;1.58;;
48621;SDS011;34421;48.944;9.460;2022-07-06T09:49:21;3.67;;;1.50;;
48621;SDS011;34421;48.944;9.460;2022-07-06T09:51:48;2.80;;;1.50;;
48621;SDS011;34421;48.944;9.460;2022-07-06T09:54:15;2.50;;;1.63;;
48621;SDS011;34421;48.944;9.460;2022-07-06T09:56:42;3.03;;;1.65;;
48621;SDS011;34421;48.944;9.460;2022-07-06T09:59:13;2.70;;;1.50;;
48621;SDS011;34421;48.944;9.460;2022-07-06T10:01:40;2.13;;;1.23;;
48621;SDS011;34421;48.944;9.460;2022-07-06T10:04:07;2.28;;;1.27;;
48621;SDS011;34421;48.944;9.460;2022-07-06T10:06:34;2.45;;;1.35;;
48621;SDS011;34421;48.944;9.460;2022-07-06T10:09:00;9.13;;;2.08;;
48621;SDS011;34421;48.944;9.460;2022-07-06T10:11:29;2.45;;;1.52;;
48621;SDS011;34421;48.944;9.460;2022-07-06T10:13:58;2.30;;;1.50;;
48621;SDS011;34421;48.944;9.460;2022-07-06T10:16:28;3.00;;;1.50;;
48621;SDS011;34421;48.944;9.460;2022-07-06T10:18:53;2.50;;;1.30;;
48621;SDS011;34421;48.944;9.460;2022-07-06T10:21:21;1.65;;;0.93;;
48621;SDS011;34421;48.944;9.460;2022-07-06T10:23:48;2.20;;;1.27;;
48621;SDS011;34421;48.944;9.460;2022-07-06T10:26:15;1.95;;;1.20;;
48621;SDS011;34421;48.944;9.460;2022-07-06T10:28:41;1.65;;;1.13;;
48621;SDS011;34421;48.944;9.460;2022-07-06T10:31:07;3.70;;;1.52;;
48621;SDS011;34421;48.944;9.460;2022-07-06T10:33:33;2.22;;;1.48;;
48621;SDS011;34421;48.944;9.460;2022-07-06T10:36:01;1.52;;;1.17;;
48621;SDS011;34421;48.944;9.460;2022-07-06T10:38:33;3.53;;;1.40;;
48621;SDS011;34421;48.944;9.460;2022-07-06T10:41:03;1.95;;;1.27;;
48621;SDS011;34421;48.944;9.460;2022-07-06T10:43:35;2.67;;;1.50;;
48621;SDS011;34421;48.944;9.460;2022-07-06T10:46:10;1.77;;;1.00;;
48621;SDS011;34421;48.944;9.460;2022-07-06T10:51:06;2.70;;;1.20;;
48621;SDS011;34421;48.944;9.460;2022-07-06T10:53:34;2.10;;;1.27;;
48621;SDS011;34421;48.944;9.460;2022-07-06T10:56:07;2.53;;;1.25;;
48621;SDS011;34421;48.944;9.460;2022-07-06T11:01:11;1.42;;;1.13;;
48621;SDS011;34421;48.944;9.460;2022-07-06T11:06:20;2.22;;;1.45;;
48621;SDS011;34421;48.944;9.460;2022-07-06T11:11:16;1.85;;;1.20;;
48621;SDS011;34421;48.944;9.460;2022-07-06T11:14:06;1.77;;;1.00;;
48621;SDS011;34421;48.944;9.460;2022-07-06T11:17:17;2.70;;;1.27;;
48621;SDS011;34421;48.944;9.460;2022-07-06T11:19:18;1.75;;;1.15;;
48621;SDS011;34421;48.944;9.460;2022-07-06T11:21:45;1.80;;;1.10;;
48621;SDS011;34421;48.944;9.460;2022-07-06T11:24:15;1.45;;;0.93;;
48621;SDS011;34421;48.944;9.460;2022-07-06T11:26:42;1.60;;;0.93;;
48621;SDS011;34421;48.944;9.460;2022-07-06T11:29:10;1.77;;;1.02;;
48621;SDS011;34421;48.944;9.460;2022-07-06T11:31:37;2.47;;;1.00;;
48621;SDS011;34421;48.944;9.460;2022-07-06T11:34:05;2.22;;;1.13;;
48621;SDS011;34421;48.944;9.460;2022-07-06T11:36:32;1.30;;;0.90;;
48621;SDS011;34421;48.944;9.460;2022-07-06T11:38:58;4.85;;;1.25;;
48621;SDS011;34421;48.944;9.460;2022-07-06T11:41:24;2.58;;;1.17;;
48621;SDS011;34421;48.944;9.460;2022-07-06T11:43:49;1.73;;;1.30;;
48621;SDS011;34421;48.944;9.460;2022-07-06T11:48:49;8.85;;;1.73;;
48621;SDS011;34421;48.944;9.460;2022-07-06T11:51:16;2.50;;;1.25;;
48621;SDS011;34421;48.944;9.460;2022-07-06T11:53:45;4.65;;;1.13;;
48621;SDS011;34421;48.944;9.460;2022-07-06T11:56:12;1.55;;;0.77;;
48621;SDS011;34421;48.944;9.460;2022-07-06T11:58:39;1.45;;;0.98;;
48621;SDS011;34421;48.944;9.460;2022-07-06T12:01:07;2.15;;;1.20;;
48621;SDS011;34421;48.944;9.460;2022-07-06T12:03:34;3.60;;;1.00;;
48621;SDS011;34421;48.944;9.460;2022-07-06T12:06:03;1.00;;;0.80;;
48621;SDS011;34421;48.944;9.460;2022-07-06T12:08:30;1.30;;;1.08;;
48621;SDS011;34421;48.944;9.460;2022-07-06T12:10:56;4.32;;;1.35;;
48621;SDS011;34421;48.944;9.460;2022-07-06T12:13:22;2.70;;;1.30;;
48621;SDS011;34421;48.944;9.460;2022-07-06T12:15:49;1.27;;;0.85;;
48621;SDS011;34421;48.944;9.460;2022-07-06T12:18:14;5.00;;;1.27;;
48621;SDS011;34421;48.944;9.460;2022-07-06T12:20:39;4.97;;;1.27;;
48621;SDS011;34421;48.944;9.460;2022-07-06T12:23:06;1.88;;;1.08;;
48621;SDS011;34421;48.944;9.460;2022-07-06T12:25:33;2.42;;;1.35;;
48621;SDS011;34421;48.944;9.460;2022-07-06T12:28:00;2.28;;;1.20;;
48621;SDS011;34421;48.944;9.460;2022-07-06T12:30:26;2.33;;;1.23;;
48621;SDS011;34421;48.944;9.460;2022-07-06T12:35:40;1.90;;;0.98;;
48621;SDS011;34421;48.944;9.460;2022-07-06T12:38:06;1.77;;;1.10;;
48621;SDS011;34421;48.944;9.460;2022-07-06T12:40:32;2.78;;;1.00;;
48621;SDS011;34421;48.944;9.460;2022-07-06T12:42:57;2.00;;;1.20;;
48621;SDS011;34421;48.944;9.460;2022-07-06T12:45:29;1.92;;;1.10;;
48621;SDS011;34421;48.944;9.460;2022-07-06T12:48:04;2.03;;;1.00;;
48621;SDS011;34421;48.944;9.460;2022-07-06T12:50:31;3.13;;;1.23;;
48621;SDS011;34421;48.944;9.460;2022-07-06T12:53:00;2.35;;;1.23;;
48621;SDS011;34421;48.944;9.460;2022-07-06T12:55:27;2.25;;;1.20;;
48621;SDS011;34421;48.944;9.460;2022-07-06T12:57:54;2.03;;;1.00;;
48621;SDS011;34421;48.944;9.460;2022-07-06T13:00:20;2.15;;;1.20;;
48621;SDS011;34421;48.944;9.460;2022-07-06T13:02:48;3.72;;;1.40;;
48621;SDS011;34421;48.944;9.460;2022-07-06T13:05:21;2.92;;;1.30;;
48621;SDS011;34421;48.944;9.460;2022-07-06T13:07:53;2.03;;;1.17;;
48621;SDS011;34421;48.944;9.460;2022-07-06T13:10:20;1.55;;;1.20;;
48621;SDS011;34421;48.944;9.460;2022-07-06T13:12:47;3.03;;;1.30;;
48621;SDS011;34421;48.944;9.460;2022-07-06T13:15:12;8.48;;;1.30;;
48621;SDS011;34421;48.944;9.460;2022-07-06T13:17:37;2.03;;;0.95;;
48621;SDS011;34421;48.944;9.460;2022-07-06T13:20:03;2.25;;;1.10;;
48621;SDS011;34421;48.944;9.460;2022-07-06T13:22:30;2.53;;;1.25;;
48621;SDS011;34421;48.944;9.460;2022-07-06T13:24:55;3.22;;;1.10;;
48621;SDS011;34421;48.944;9.460;2022-07-06T13:27:23;1.40;;;0.90;;
48621;SDS011;34421;48.944;9.460;2022-07-06T13:29:48;2.08;;;1.10;;
48621;SDS011;34421;48.944;9.460;2022-07-06T13:32:14;2.50;;;1.23;;
48621;SDS011;34421;48.944;9.460;2022-07-06T13:34:39;1.10;;;1.00;;
48621;SDS011;34421;48.944;9.460;2022-07-06T13:37:04;1.42;;;0.98;;
48621;SDS011;34421;48.944;9.460;2022-07-06T13:39:30;2.10;;;1.02;;
48621;SDS011;34421;48.944;9.460;2022-07-06T13:41:57;1.42;;;0.93;;
48621;SDS011;34421;48.944;9.460;2022-07-06T13:44:22;2.05;;;1.10;;
48621;SDS011;34421;48.944;9.460;2022-07-06T13:46:48;2.40;;;0.93;;
48621;SDS011;34421;48.944;9.460;2022-07-06T13:49:14;3.40;;;0.70;;
48621;SDS011;34421;48.944;9.460;2022-07-06T13:51:40;1.02;;;0.70;;
48621;SDS011;34421;48.944;9.460;2022-07-06T13:54:05;3.08;;;1.05;;
48621;SDS011;34421;48.944;9.460;2022-07-06T13:56:31;4.50;;;0.70;;
48621;SDS011;34421;48.944;9.460;2022-07-06T13:58:57;2.47;;;0.73;;
48621;SDS011;34421;48.944;9.460;2022-07-06T14:01:22;3.33;;;0.95;;
48621;SDS011;34421;48.944;9.460;2022-07-06T14:03:48;0.70;;;0.70;;
48621;SDS011;34421;48.944;9.460;2022-07-06T14:06:13;1.95;;;1.05;;
48621;SDS011;34421;48.944;9.460;2022-07-06T14:08:40;2.92;;;0.90;;
48621;SDS011;34421;48.944;9.460;2022-07-06T14:11:06;1.20;;;0.82;;
48621;SDS011;34421;48.944;9.460;2022-07-06T14:13:33;4.78;;;1.45;;
48621;SDS011;34421;48.944;9.460;2022-07-06T14:15:59;1.17;;;0.98;;
48621;SDS011;34421;48.944;9.460;2022-07-06T14:18:25;1.83;;;1.00;;
48621;SDS011;34421;48.944;9.460;2022-07-06T14:20:51;1.90;;;0.80;;
48621;SDS011;34421;48.944;9.460;2022-07-06T14:23:17;1.15;;;0.70;;
48621;SDS011;34421;48.944;9.460;2022-07-06T14:25:43;3.28;;;1.00;;
48621;SDS011;34421;48.944;9.460;2022-07-06T14:28:09;1.17;;;0.77;;
48621;SDS011;34421;48.944;9.460;2022-07-06T14:30:38;1.30;;;0.88;;
48621;SDS011;34421;48.944;9.460;2022-07-06T14:33:05;1.73;;;0.98;;
48621;SDS011;34421;48.944;9.460;2022-07-06T14:35:33;1.45;;;0.80;;
48621;SDS011;34421;48.944;9.460;2022-07-06T14:38:02;1.20;;;0.77;;
48621;SDS011;34421;48.944;9.460;2022-07-06T14:40:29;2.00;;;1.00;;
48621;SDS011;34421;48.944;9.460;2022-07-06T14:42:55;1.35;;;0.60;;
48621;SDS011;34421;48.944;9.460;2022-07-06T14:45:21;1.38;;;0.77;;
48621;SDS011;34421;48.944;9.460;2022-07-06T14:47:47;0.98;;;0.82;;
48621;SDS011;34421;48.944;9.460;2022-07-06T14:50:12;0.82;;;0.70;;
48621;SDS011;34421;48.944;9.460;2022-07-06T14:52:38;1.52;;;0.85;;
48621;SDS011;34421;48.944;9.460;2022-07-06T14:55:03;0.85;;;0.60;;
48621;SDS011;34421;48.944;9.460;2022-07-06T14:57:29;1.35;;;0.70;;
48621;SDS011;34421;48.944;9.460;2022-07-06T14:59:54;2.53;;;0.80;;
48621;SDS011;34421;48.944;9.460;2022-07-06T15:02:19;1.77;;;0.77;;
48621;SDS011;34421;48.944;9.460;2022-07-06T15:04:45;1.75;;;0.70;;